createdAt,value
2023-06-11T00:00:11.055Z,17.25
2023-06-11T00:00:41.982Z,17.28
2023-06-11T00:01:12.917Z,17.28
2023-06-11T00:01:43.838Z,17.28
2023-06-11T00:02:14.747Z,17.30
2023-06-11T00:02:45.859Z,17.30
2023-06-11T00:03:16.443Z,17.28
2023-06-11T00:03:47.132Z,17.28
2023-06-11T00:04:17.647Z,17.30
2023-06-11T00:04:48.168Z,17.27
2023-06-11T00:05:19.143Z,17.25
2023-06-11T00:05:50.035Z,17.27
2023-06-11T00:06:20.838Z,17.24
2023-06-11T00:06:51.749Z,17.27
2023-06-11T00:07:22.666Z,17.32
2023-06-11T00:07:53.617Z,17.32
2023-06-11T00:08:24.502Z,17.32
2023-06-11T00:08:55.477Z,17.30
2023-06-11T00:09:26.415Z,17.30
2023-06-11T00:09:57.327Z,17.27
2023-06-11T00:10:28.246Z,17.22
2023-06-11T00:10:59.179Z,17.24
2023-06-11T00:11:30.108Z,17.22
2023-06-11T00:12:01.005Z,17.22
2023-06-11T00:12:31.930Z,17.20
2023-06-11T00:13:02.865Z,17.17
2023-06-11T00:13:33.798Z,17.20
2023-06-11T00:14:04.734Z,17.18
2023-06-11T00:14:35.660Z,17.15
2023-06-11T00:15:06.685Z,17.15
2023-06-11T00:15:37.135Z,17.14
2023-06-11T00:16:08.062Z,17.14
2023-06-11T00:16:38.968Z,17.14
2023-06-11T00:17:09.472Z,17.12
2023-06-11T00:17:40.441Z,17.10
2023-06-11T00:18:10.911Z,17.12
2023-06-11T00:18:41.871Z,17.10
2023-06-11T00:19:12.803Z,17.10
2023-06-11T00:19:43.733Z,17.10
2023-06-11T00:20:14.688Z,17.10
2023-06-11T00:20:45.596Z,17.10
2023-06-11T00:21:16.498Z,17.07
2023-06-11T00:21:47.431Z,17.07
2023-06-11T00:22:18.367Z,17.10
2023-06-11T00:22:49.331Z,17.09
2023-06-11T00:23:20.210Z,17.09
2023-06-11T00:23:51.205Z,17.06
2023-06-11T00:24:21.784Z,17.06
2023-06-11T00:24:52.214Z,17.05
2023-06-11T00:25:23.143Z,17.06
2023-06-11T00:25:54.113Z,17.05
2023-06-11T00:26:25.010Z,17.05
2023-06-11T00:26:55.923Z,17.05
2023-06-11T00:27:25.423Z,17.05
2023-06-11T00:27:57.316Z,17.05
2023-06-11T00:28:28.231Z,17.03
2023-06-11T00:28:59.137Z,17.03
2023-06-11T00:29:30.074Z,17.03
2023-06-11T00:30:00.985Z,17.02
2023-06-11T00:30:31.967Z,17.00
2023-06-11T00:31:02.443Z,16.99
2023-06-11T00:31:33.427Z,16.98
2023-06-11T00:32:03.934Z,16.98
2023-06-11T00:32:34.438Z,16.98
2023-06-11T00:33:04.025Z,16.98
2023-06-11T00:33:35.509Z,16.96
2023-06-11T00:34:06.450Z,16.95
2023-06-11T00:34:37.378Z,16.92
2023-06-11T00:35:08.995Z,16.92
2023-06-11T00:35:39.181Z,16.90
2023-06-11T00:36:10.118Z,16.88
2023-06-11T00:36:41.028Z,16.85
2023-06-11T00:37:11.951Z,16.87
2023-06-11T00:37:42.854Z,16.88
2023-06-11T00:38:13.775Z,16.87
2023-06-11T00:38:44.696Z,16.87
2023-06-11T00:39:15.592Z,16.88
2023-06-11T00:39:46.524Z,16.87
2023-06-11T00:40:17.456Z,16.85
2023-06-11T00:40:48.415Z,16.84
2023-06-11T00:41:19.313Z,16.84
2023-06-11T00:41:50.273Z,16.81
2023-06-11T00:42:21.025Z,16.82
2023-06-11T00:42:50.522Z,16.81
2023-06-11T00:43:22.372Z,16.82
2023-06-11T00:43:53.327Z,16.84
2023-06-11T00:44:23.815Z,16.84
2023-06-11T00:44:54.621Z,16.84
2023-06-11T00:45:25.586Z,16.81
2023-06-11T00:45:55.161Z,16.80
2023-06-11T00:46:27.190Z,16.80
2023-06-11T00:46:57.626Z,16.78
2023-06-11T00:47:28.538Z,16.78
2023-06-11T00:47:58.114Z,16.80
2023-06-11T00:48:30.036Z,16.78
2023-06-11T00:49:00.943Z,16.78
2023-06-11T00:49:31.904Z,16.78
2023-06-11T00:50:02.865Z,16.78
2023-06-11T00:50:33.777Z,16.78
2023-06-11T00:51:04.720Z,16.78
2023-06-11T00:51:35.664Z,16.77
2023-06-11T00:52:06.571Z,16.77
2023-06-11T00:52:37.487Z,16.75
2023-06-11T00:53:08.410Z,16.73
2023-06-11T00:53:39.352Z,16.72
2023-06-11T00:54:10.263Z,16.72
2023-06-11T00:54:41.178Z,16.72
2023-06-11T00:55:12.325Z,16.72
2023-06-11T00:55:43.001Z,16.75
2023-06-11T00:56:13.894Z,16.77
2023-06-11T00:56:44.832Z,16.75
2023-06-11T00:57:15.720Z,16.73
2023-06-11T00:57:46.618Z,16.73
2023-06-11T00:58:17.556Z,16.73
2023-06-11T00:58:48.526Z,16.75
2023-06-11T00:59:19.005Z,16.73
2023-06-11T00:59:49.961Z,16.73
2023-06-11T01:00:20.900Z,16.73
2023-06-11T01:00:51.897Z,16.75
2023-06-11T01:01:22.862Z,16.77
2023-06-11T01:01:53.789Z,16.78
2023-06-11T01:02:24.603Z,16.78
2023-06-11T01:02:55.553Z,16.77
2023-06-11T01:03:26.459Z,16.78
2023-06-11T01:03:57.392Z,16.80
2023-06-11T01:04:28.465Z,16.80
2023-06-11T01:04:59.182Z,16.81
2023-06-11T01:05:29.912Z,16.80
2023-06-11T01:06:01.554Z,16.80
2023-06-11T01:06:31.263Z,16.78
2023-06-11T01:07:02.164Z,16.80
2023-06-11T01:07:33.107Z,16.81
2023-06-11T01:08:04.039Z,16.81
2023-06-11T01:08:34.957Z,16.80
2023-06-11T01:09:05.894Z,16.80
2023-06-11T01:09:36.845Z,16.78
2023-06-11T01:10:07.794Z,16.77
2023-06-11T01:10:38.681Z,16.77
2023-06-11T01:11:11.222Z,16.75
2023-06-11T01:11:40.238Z,16.75
2023-06-11T01:12:11.158Z,16.73
2023-06-11T01:12:42.078Z,16.77
2023-06-11T01:13:15.004Z,16.77
2023-06-11T01:13:42.863Z,16.77
2023-06-11T01:14:14.777Z,16.78
2023-06-11T01:14:45.684Z,16.78
2023-06-11T01:15:16.658Z,16.78
2023-06-11T01:15:47.559Z,16.77
2023-06-11T01:16:18.477Z,16.78
2023-06-11T01:16:49.119Z,16.73
2023-06-11T01:17:19.665Z,16.70
2023-06-11T01:17:49.275Z,16.69
2023-06-11T01:18:21.209Z,16.69
2023-06-11T01:18:52.135Z,16.66
2023-06-11T01:19:23.069Z,16.66
2023-06-11T01:19:54.004Z,16.66
2023-06-11T01:20:24.956Z,16.66
2023-06-11T01:20:55.761Z,16.67
2023-06-11T01:21:25.319Z,16.66
2023-06-11T01:21:57.235Z,16.67
2023-06-11T01:22:28.158Z,16.66
2023-06-11T01:22:59.075Z,16.65
2023-06-11T01:23:28.611Z,16.63
2023-06-11T01:24:00.528Z,16.63
2023-06-11T01:24:31.014Z,16.60
2023-06-11T01:25:01.914Z,16.57
2023-06-11T01:25:31.910Z,16.57
2023-06-11T01:26:03.842Z,16.52
2023-06-11T01:26:34.723Z,16.52
2023-06-11T01:27:05.622Z,16.52
2023-06-11T01:27:36.564Z,16.51
2023-06-11T01:28:07.467Z,16.51
2023-06-11T01:28:36.996Z,16.54
2023-06-11T01:29:08.946Z,16.51
2023-06-11T01:29:39.907Z,16.51
2023-06-11T01:30:10.817Z,16.52
2023-06-11T01:30:41.767Z,16.52
2023-06-11T01:31:12.731Z,16.51
2023-06-11T01:31:43.927Z,16.52
2023-06-11T01:32:14.445Z,16.51
2023-06-11T01:32:45.400Z,16.55
2023-06-11T01:33:16.354Z,16.55
2023-06-11T01:33:47.256Z,16.55
2023-06-11T01:34:18.175Z,16.55
2023-06-11T01:34:49.097Z,16.55
2023-06-11T01:35:20.045Z,16.54
2023-06-11T01:35:50.964Z,16.54
2023-06-11T01:36:21.895Z,16.51
2023-06-11T01:36:52.796Z,16.50
2023-06-11T01:37:23.683Z,16.50
2023-06-11T01:37:54.591Z,16.50
2023-06-11T01:38:25.532Z,16.51
2023-06-11T01:38:56.440Z,16.48
2023-06-11T01:39:27.361Z,16.51
2023-06-11T01:39:58.266Z,16.52
2023-06-11T01:40:29.194Z,16.51
2023-06-11T01:41:00.164Z,16.51
2023-06-11T01:41:30.626Z,16.50
2023-06-11T01:42:01.437Z,16.50
2023-06-11T01:42:32.412Z,16.50
2023-06-11T01:43:03.330Z,16.48
2023-06-11T01:43:34.267Z,16.48
2023-06-11T01:44:05.187Z,16.45
2023-06-11T01:44:34.834Z,16.45
2023-06-11T01:45:06.797Z,16.44
2023-06-11T01:45:37.747Z,16.44
2023-06-11T01:46:08.812Z,16.44
2023-06-11T01:46:39.318Z,16.44
2023-06-11T01:47:08.985Z,16.41
2023-06-11T01:47:40.900Z,16.40
2023-06-11T01:48:11.808Z,16.40
2023-06-11T01:48:42.638Z,16.40
2023-06-11T01:49:13.541Z,16.37
2023-06-11T01:49:44.444Z,16.36
2023-06-11T01:50:15.345Z,16.36
2023-06-11T01:50:46.259Z,16.36
2023-06-11T01:51:17.218Z,16.36
2023-06-11T01:51:48.130Z,16.34
2023-06-11T01:52:19.043Z,16.36
2023-06-11T01:52:49.950Z,16.33
2023-06-11T01:53:20.848Z,16.33
2023-06-11T01:53:51.772Z,16.33
2023-06-11T01:54:22.663Z,16.32
2023-06-11T01:54:53.569Z,16.32
2023-06-11T01:55:24.504Z,16.32
2023-06-11T01:55:55.355Z,16.32
2023-06-11T01:56:26.301Z,16.30
2023-06-11T01:56:57.200Z,16.30
2023-06-11T01:57:26.718Z,16.32
2023-06-11T01:57:58.706Z,16.32
2023-06-11T01:58:29.688Z,16.33
2023-06-11T01:59:00.629Z,16.36
2023-06-11T01:59:31.537Z,16.36
2023-06-11T02:00:02.476Z,16.33
2023-06-11T02:00:33.406Z,16.32
2023-06-11T02:01:04.330Z,16.34
2023-06-11T02:01:35.328Z,16.34
2023-06-11T02:02:06.340Z,16.36
2023-06-11T02:02:36.938Z,16.34
2023-06-11T02:03:07.477Z,16.32
2023-06-11T02:03:38.006Z,16.34
2023-06-11T02:04:08.583Z,16.34
2023-06-11T02:04:39.014Z,16.34
2023-06-11T02:05:10.329Z,16.36
2023-06-11T02:05:40.504Z,16.34
2023-06-11T02:06:11.423Z,16.36
2023-06-11T02:06:42.309Z,16.33
2023-06-11T02:07:13.274Z,16.33
2023-06-11T02:07:44.173Z,16.32
2023-06-11T02:08:15.063Z,16.30
2023-06-11T02:08:45.958Z,16.30
2023-06-11T02:09:16.924Z,16.30
2023-06-11T02:09:47.823Z,16.29
2023-06-11T02:10:18.899Z,16.29
2023-06-11T02:10:49.346Z,16.27
2023-06-11T02:11:20.275Z,16.26
2023-06-11T02:11:51.164Z,16.23
2023-06-11T02:12:22.079Z,16.25
2023-06-11T02:12:52.993Z,16.26
2023-06-11T02:13:23.798Z,16.22
2023-06-11T02:13:54.696Z,16.18
2023-06-11T02:14:25.600Z,16.17
2023-06-11T02:14:56.406Z,16.16
2023-06-11T02:15:27.326Z,16.16
2023-06-11T02:15:58.210Z,16.16
2023-06-11T02:16:28.724Z,16.14
2023-06-11T02:16:59.174Z,16.13
2023-06-11T02:17:30.152Z,16.13
2023-06-11T02:18:01.202Z,16.11
2023-06-11T02:18:31.643Z,16.11
2023-06-11T02:19:02.572Z,16.11
2023-06-11T02:19:33.492Z,16.11
2023-06-11T02:20:04.409Z,16.13
2023-06-11T02:20:35.319Z,16.11
2023-06-11T02:21:06.218Z,16.13
2023-06-11T02:21:37.138Z,16.11
2023-06-11T02:22:08.071Z,16.10
2023-06-11T02:22:38.959Z,16.10
2023-06-11T02:23:09.894Z,16.08
2023-06-11T02:23:40.929Z,16.06
2023-06-11T02:24:11.354Z,16.06
2023-06-11T02:24:41.842Z,16.04
2023-06-11T02:25:13.152Z,16.06
2023-06-11T02:25:43.311Z,16.08
2023-06-11T02:26:14.255Z,16.06
2023-06-11T02:26:45.199Z,16.06
2023-06-11T02:27:16.129Z,16.03
2023-06-11T02:27:47.084Z,16.01
2023-06-11T02:28:18.019Z,16.01
2023-06-11T02:28:48.838Z,16.01
2023-06-11T02:29:19.759Z,15.98
2023-06-11T02:29:50.651Z,15.96
2023-06-11T02:30:24.192Z,15.98
2023-06-11T02:30:52.381Z,15.98
2023-06-11T02:31:23.338Z,15.98
2023-06-11T02:31:54.358Z,15.98
2023-06-11T02:32:24.793Z,15.98
2023-06-11T02:32:55.751Z,15.98
2023-06-11T02:33:26.684Z,15.99
2023-06-11T02:33:57.584Z,15.99
2023-06-11T02:34:28.497Z,15.99
2023-06-11T02:34:59.438Z,15.99
2023-06-11T02:35:30.347Z,15.99
2023-06-11T02:36:01.323Z,16.01
2023-06-11T02:36:32.233Z,16.03
2023-06-11T02:37:03.164Z,15.99
2023-06-11T02:37:34.098Z,15.98
2023-06-11T02:38:05.038Z,15.98
2023-06-11T02:38:35.966Z,15.98
2023-06-11T02:39:06.948Z,15.98
2023-06-11T02:39:37.896Z,15.96
2023-06-11T02:40:07.771Z,15.95
2023-06-11T02:40:39.691Z,15.95
2023-06-11T02:41:10.626Z,15.96
2023-06-11T02:41:41.597Z,15.96
2023-06-11T02:42:12.486Z,15.95
2023-06-11T02:42:43.401Z,15.95
2023-06-11T02:43:14.288Z,15.93
2023-06-11T02:43:43.869Z,15.92
2023-06-11T02:44:15.821Z,15.92
2023-06-11T02:44:46.358Z,15.89
2023-06-11T02:45:17.257Z,15.88
2023-06-11T02:45:48.268Z,15.86
2023-06-11T02:46:19.243Z,15.86
2023-06-11T02:46:50.176Z,15.86
2023-06-11T02:47:21.153Z,15.84
2023-06-11T02:47:52.052Z,15.81
2023-06-11T02:48:22.963Z,15.81
2023-06-11T02:48:53.842Z,15.81
2023-06-11T02:49:24.744Z,15.81
2023-06-11T02:49:55.692Z,15.84
2023-06-11T02:50:26.604Z,15.84
2023-06-11T02:50:57.519Z,15.81
2023-06-11T02:51:28.459Z,15.81
2023-06-11T02:51:59.349Z,15.81
2023-06-11T02:52:30.231Z,15.85
2023-06-11T02:53:01.100Z,15.86
2023-06-11T02:53:31.987Z,15.88
2023-06-11T02:54:02.859Z,15.88
2023-06-11T02:54:33.793Z,15.88
2023-06-11T02:55:04.663Z,15.88
2023-06-11T02:55:35.535Z,15.86
2023-06-11T02:56:06.393Z,15.86
2023-06-11T02:56:37.346Z,15.89
2023-06-11T02:57:08.250Z,15.88
2023-06-11T02:57:39.106Z,15.86
2023-06-11T02:58:09.966Z,15.84
2023-06-11T02:58:40.867Z,15.85
2023-06-11T02:59:11.721Z,15.88
2023-06-11T02:59:42.618Z,15.88
2023-06-11T03:00:13.465Z,15.91
2023-06-11T03:00:44.571Z,15.89
2023-06-11T03:01:14.962Z,15.91
2023-06-11T03:01:45.960Z,15.91
2023-06-11T03:02:16.322Z,15.91
2023-06-11T03:02:47.282Z,15.89
2023-06-11T03:03:18.193Z,15.86
2023-06-11T03:03:49.087Z,15.86
2023-06-11T03:04:20.055Z,15.86
2023-06-11T03:04:50.923Z,15.86
2023-06-11T03:05:21.790Z,15.84
2023-06-11T03:05:52.661Z,15.84
2023-06-11T03:06:23.521Z,15.84
2023-06-11T03:06:54.364Z,15.80
2023-06-11T03:07:25.250Z,15.80
2023-06-11T03:07:56.098Z,15.78
2023-06-11T03:08:26.992Z,15.77
2023-06-11T03:08:57.844Z,15.77
2023-06-11T03:09:28.728Z,15.78
2023-06-11T03:09:59.568Z,15.80
2023-06-11T03:10:30.351Z,15.81
2023-06-11T03:11:01.132Z,15.85
2023-06-11T03:11:32.004Z,15.86
2023-06-11T03:12:02.850Z,15.88
2023-06-11T03:12:33.715Z,15.86
2023-06-11T03:13:04.651Z,15.86
2023-06-11T03:13:35.558Z,15.85
2023-06-11T03:14:06.485Z,15.84
2023-06-11T03:14:37.362Z,15.84
2023-06-11T03:15:08.319Z,15.84
2023-06-11T03:15:38.888Z,15.84
2023-06-11T03:16:08.464Z,15.84
2023-06-11T03:16:40.419Z,15.81
2023-06-11T03:17:10.823Z,15.85
2023-06-11T03:17:41.683Z,15.84
2023-06-11T03:18:12.614Z,15.81
2023-06-11T03:18:42.604Z,15.81
2023-06-11T03:19:14.472Z,15.81
2023-06-11T03:19:45.383Z,15.80
2023-06-11T03:20:16.103Z,15.80
2023-06-11T03:20:46.957Z,15.78
2023-06-11T03:21:17.836Z,15.77
2023-06-11T03:21:48.713Z,15.76
2023-06-11T03:22:19.611Z,15.73
2023-06-11T03:22:50.467Z,15.71
2023-06-11T03:23:21.312Z,15.70
2023-06-11T03:23:52.201Z,15.68
2023-06-11T03:24:23.115Z,15.67
2023-06-11T03:24:53.992Z,15.66
2023-06-11T03:25:24.866Z,15.66
2023-06-11T03:25:55.775Z,15.62
2023-06-11T03:26:25.361Z,15.62
2023-06-11T03:26:57.307Z,15.62
2023-06-11T03:27:26.892Z,15.62
2023-06-11T03:27:58.768Z,15.66
2023-06-11T03:28:29.545Z,15.67
2023-06-11T03:29:00.415Z,15.67
2023-06-11T03:29:31.284Z,15.68
2023-06-11T03:30:02.143Z,15.68
2023-06-11T03:30:33.019Z,15.68
2023-06-11T03:31:03.810Z,15.70
2023-06-11T03:31:33.455Z,15.71
2023-06-11T03:32:05.353Z,15.70
2023-06-11T03:32:36.292Z,15.71
2023-06-11T03:33:07.192Z,15.70
2023-06-11T03:33:38.107Z,15.70
2023-06-11T03:34:08.943Z,15.70
2023-06-11T03:34:39.771Z,15.70
2023-06-11T03:35:11.019Z,15.71
2023-06-11T03:35:41.376Z,15.71
2023-06-11T03:36:12.256Z,15.68
2023-06-11T03:36:43.151Z,15.70
2023-06-11T03:37:14.016Z,15.70
2023-06-11T03:37:44.913Z,15.67
2023-06-11T03:38:14.488Z,15.68
2023-06-11T03:38:46.361Z,15.68
2023-06-11T03:39:17.245Z,15.68
2023-06-11T03:39:48.078Z,15.68
2023-06-11T03:40:18.835Z,15.67
2023-06-11T03:40:49.687Z,15.67
2023-06-11T03:41:20.528Z,15.67
2023-06-11T03:41:51.451Z,15.68
2023-06-11T03:42:22.285Z,15.66
2023-06-11T03:42:53.147Z,15.68
2023-06-11T03:43:24.025Z,15.68
2023-06-11T03:43:54.766Z,15.70
2023-06-11T03:44:25.619Z,15.70
2023-06-11T03:44:56.543Z,15.70
2023-06-11T03:45:27.374Z,15.73
2023-06-11T03:45:58.228Z,15.70
2023-06-11T03:46:29.210Z,15.71
2023-06-11T03:47:00.118Z,15.73
2023-06-11T03:47:30.837Z,15.71
2023-06-11T03:48:01.754Z,15.71
2023-06-11T03:48:31.354Z,15.71
2023-06-11T03:49:03.219Z,15.74
2023-06-11T03:49:34.066Z,15.74
2023-06-11T03:50:04.905Z,15.73
2023-06-11T03:50:35.798Z,15.73
2023-06-11T03:51:06.643Z,15.73
2023-06-11T03:51:37.541Z,15.73
2023-06-11T03:52:08.424Z,15.73
2023-06-11T03:52:39.302Z,15.71
2023-06-11T03:53:09.285Z,15.70
2023-06-11T03:53:41.161Z,15.67
2023-06-11T03:54:12.080Z,15.68
2023-06-11T03:54:42.940Z,15.67
2023-06-11T03:55:13.870Z,15.68
2023-06-11T03:55:44.803Z,15.68
2023-06-11T03:56:15.669Z,15.67
2023-06-11T03:56:46.543Z,15.67
2023-06-11T03:57:17.387Z,15.68
2023-06-11T03:57:48.273Z,15.70
2023-06-11T03:58:18.292Z,15.71
2023-06-11T03:58:50.167Z,15.71
2023-06-11T03:59:21.042Z,15.70
2023-06-11T03:59:51.034Z,15.68
2023-06-11T04:00:22.912Z,15.68
2023-06-11T04:00:53.816Z,15.67
2023-06-11T04:01:24.678Z,15.67
2023-06-11T04:01:55.533Z,15.68
2023-06-11T04:02:26.533Z,15.68
2023-06-11T04:02:58.824Z,15.71
2023-06-11T04:03:27.906Z,15.71
2023-06-11T04:03:58.396Z,15.71
2023-06-11T04:04:29.391Z,15.73
2023-06-11T04:05:00.247Z,15.71
2023-06-11T04:05:31.115Z,15.73
2023-06-11T04:06:02.001Z,15.73
2023-06-11T04:06:31.807Z,15.73
2023-06-11T04:07:04.434Z,15.73
2023-06-11T04:07:34.327Z,15.73
2023-06-11T04:08:05.177Z,15.74
2023-06-11T04:08:36.038Z,15.71
2023-06-11T04:09:06.909Z,15.70
2023-06-11T04:09:37.779Z,15.70
2023-06-11T04:10:08.829Z,15.71
2023-06-11T04:10:39.301Z,15.70
2023-06-11T04:11:10.153Z,15.71
2023-06-11T04:11:41.032Z,15.70
2023-06-11T04:12:11.886Z,15.68
2023-06-11T04:12:42.645Z,15.67
2023-06-11T04:13:12.184Z,15.67
2023-06-11T04:13:44.031Z,15.67
2023-06-11T04:14:14.902Z,15.68
2023-06-11T04:14:45.774Z,15.67
2023-06-11T04:15:16.624Z,15.67
2023-06-11T04:15:47.501Z,15.67
2023-06-11T04:16:18.328Z,15.68
2023-06-11T04:16:49.258Z,15.70
2023-06-11T04:17:21.210Z,15.68
2023-06-11T04:17:50.817Z,15.70
2023-06-11T04:18:21.717Z,15.70
2023-06-11T04:18:52.230Z,15.73
2023-06-11T04:19:23.099Z,15.73
2023-06-11T04:19:53.979Z,15.73
2023-06-11T04:20:24.852Z,15.71
2023-06-11T04:20:55.717Z,15.74
2023-06-11T04:21:26.585Z,15.76
2023-06-11T04:21:57.420Z,15.76
2023-06-11T04:22:28.348Z,15.73
2023-06-11T04:22:59.186Z,15.76
2023-06-11T04:23:30.072Z,15.74
2023-06-11T04:24:00.958Z,15.74
2023-06-11T04:24:31.857Z,15.74
2023-06-11T04:25:01.507Z,15.74
2023-06-11T04:25:33.353Z,15.74
2023-06-11T04:26:04.217Z,15.76
2023-06-11T04:26:35.120Z,15.76
2023-06-11T04:27:05.969Z,15.77
2023-06-11T04:27:36.851Z,15.77
2023-06-11T04:28:07.716Z,15.74
2023-06-11T04:28:38.569Z,15.76
2023-06-11T04:29:09.437Z,15.76
2023-06-11T04:29:40.297Z,15.74
2023-06-11T04:30:10.323Z,15.73
2023-06-11T04:30:42.178Z,15.76
2023-06-11T04:31:13.149Z,15.74
2023-06-11T04:31:43.651Z,15.76
2023-06-11T04:32:14.497Z,15.76
2023-06-11T04:32:45.387Z,15.76
2023-06-11T04:33:15.215Z,15.76
2023-06-11T04:33:47.113Z,15.76
2023-06-11T04:34:18.015Z,15.77
2023-06-11T04:34:48.897Z,15.78
2023-06-11T04:35:19.927Z,15.80
2023-06-11T04:35:50.436Z,15.80
2023-06-11T04:36:19.970Z,15.81
2023-06-11T04:36:51.819Z,15.84
2023-06-11T04:37:22.665Z,15.84
2023-06-11T04:37:53.526Z,15.85
2023-06-11T04:38:24.363Z,15.84
2023-06-11T04:38:55.247Z,15.85
2023-06-11T04:39:26.124Z,15.86
2023-06-11T04:39:56.999Z,15.86
2023-06-11T04:40:27.855Z,15.86
2023-06-11T04:40:58.719Z,15.85
2023-06-11T04:41:29.578Z,15.85
2023-06-11T04:42:00.409Z,15.86
2023-06-11T04:42:33.092Z,15.88
2023-06-11T04:43:01.789Z,15.89
2023-06-11T04:43:32.650Z,15.88
2023-06-11T04:44:03.536Z,15.89
2023-06-11T04:44:34.407Z,15.91
2023-06-11T04:45:05.186Z,15.92
2023-06-11T04:45:36.039Z,15.92
2023-06-11T04:46:06.964Z,15.92
2023-06-11T04:46:37.858Z,15.93
2023-06-11T04:47:08.760Z,15.93
2023-06-11T04:47:39.642Z,15.93
2023-06-11T04:48:10.533Z,15.96
2023-06-11T04:48:41.401Z,15.96
2023-06-11T04:49:12.254Z,15.98
2023-06-11T04:49:43.110Z,16.01
2023-06-11T04:50:14.036Z,16.01
2023-06-11T04:50:43.848Z,15.99
2023-06-11T04:51:15.710Z,16.03
2023-06-11T04:51:46.585Z,16.04
2023-06-11T04:52:17.450Z,16.06
2023-06-11T04:52:46.997Z,16.07
2023-06-11T04:53:17.570Z,16.07
2023-06-11T04:53:49.315Z,16.08
2023-06-11T04:54:20.165Z,16.08
2023-06-11T04:54:51.015Z,16.08
2023-06-11T04:55:21.910Z,16.10
2023-06-11T04:55:52.823Z,16.11
2023-06-11T04:56:23.672Z,16.13
2023-06-11T04:56:54.543Z,16.14
2023-06-11T04:57:25.404Z,16.16
2023-06-11T04:57:56.606Z,16.16
2023-06-11T04:58:27.037Z,16.16
2023-06-11T04:58:57.949Z,16.16
2023-06-11T04:59:28.701Z,16.16
2023-06-11T04:59:59.539Z,16.17
2023-06-11T05:00:30.425Z,16.17
2023-06-11T05:01:01.309Z,16.17
2023-06-11T05:01:32.241Z,16.18
2023-06-11T05:02:03.152Z,16.23
2023-06-11T05:02:34.087Z,16.22
2023-06-11T05:03:04.966Z,16.22
2023-06-11T05:03:35.885Z,16.23
2023-06-11T05:04:06.661Z,16.25
2023-06-11T05:04:37.402Z,16.26
2023-06-11T05:05:08.369Z,16.27
2023-06-11T05:05:38.873Z,16.27
2023-06-11T05:06:09.790Z,16.29
2023-06-11T05:06:40.688Z,16.29
2023-06-11T05:07:11.605Z,16.29
2023-06-11T05:07:42.507Z,16.29
2023-06-11T05:08:13.354Z,16.29
2023-06-11T05:08:44.268Z,16.30
2023-06-11T05:09:15.123Z,16.30
2023-06-11T05:09:46.265Z,16.33
2023-06-11T05:10:16.744Z,16.33
2023-06-11T05:10:47.476Z,16.34
2023-06-11T05:11:18.344Z,16.34
2023-06-11T05:11:49.202Z,16.36
2023-06-11T05:12:20.105Z,16.34
2023-06-11T05:12:50.958Z,16.37
2023-06-11T05:13:21.804Z,16.37
2023-06-11T05:13:52.661Z,16.40
2023-06-11T05:14:22.239Z,16.41
2023-06-11T05:14:54.083Z,16.41
2023-06-11T05:15:25.036Z,16.42
2023-06-11T05:15:55.911Z,16.45
2023-06-11T05:16:25.921Z,16.44
2023-06-11T05:16:57.901Z,16.47
2023-06-11T05:17:28.850Z,16.48
2023-06-11T05:17:59.747Z,16.48
2023-06-11T05:18:30.617Z,16.50
2023-06-11T05:19:01.473Z,16.50
2023-06-11T05:19:31.269Z,16.51
2023-06-11T05:20:03.141Z,16.52
2023-06-11T05:20:33.997Z,16.52
2023-06-11T05:21:05.908Z,16.52
2023-06-11T05:21:34.404Z,16.54
2023-06-11T05:22:06.275Z,16.57
2023-06-11T05:22:38.487Z,16.59
2023-06-11T05:23:06.966Z,16.59
2023-06-11T05:23:38.835Z,16.60
2023-06-11T05:24:09.700Z,16.60
2023-06-11T05:24:40.624Z,16.60
2023-06-11T05:25:11.794Z,16.62
2023-06-11T05:25:42.385Z,16.66
2023-06-11T05:26:13.307Z,16.67
2023-06-11T05:26:44.217Z,16.67
2023-06-11T05:27:15.101Z,16.69
2023-06-11T05:27:45.955Z,16.69
2023-06-11T05:28:16.811Z,16.70
2023-06-11T05:28:47.663Z,16.73
2023-06-11T05:29:18.523Z,16.73
2023-06-11T05:29:49.435Z,16.75
2023-06-11T05:30:20.280Z,16.75
2023-06-11T05:30:51.143Z,16.75
2023-06-11T05:31:21.722Z,16.77
2023-06-11T05:31:52.655Z,16.77
2023-06-11T05:32:23.623Z,16.78
2023-06-11T05:32:54.511Z,16.81
2023-06-11T05:33:24.973Z,16.82
2023-06-11T05:33:55.840Z,16.84
2023-06-11T05:34:26.695Z,16.85
2023-06-11T05:34:57.563Z,16.85
2023-06-11T05:35:28.465Z,16.87
2023-06-11T05:35:59.319Z,16.88
2023-06-11T05:36:30.158Z,16.88
2023-06-11T05:37:01.045Z,16.91
2023-06-11T05:37:31.927Z,16.91
2023-06-11T05:38:02.767Z,16.91
2023-06-11T05:38:33.635Z,16.95
2023-06-11T05:39:04.494Z,16.95
2023-06-11T05:39:35.355Z,16.98
2023-06-11T05:40:06.246Z,16.98
2023-06-11T05:40:37.105Z,17.00
2023-06-11T05:41:07.997Z,17.00
2023-06-11T05:41:38.881Z,17.02
2023-06-11T05:42:08.454Z,17.02
2023-06-11T05:42:40.369Z,17.05
2023-06-11T05:43:11.238Z,17.06
2023-06-11T05:43:42.104Z,17.06
2023-06-11T05:44:12.944Z,17.07
2023-06-11T05:44:43.818Z,17.09
2023-06-11T05:45:14.806Z,17.09
2023-06-11T05:45:45.279Z,17.10
2023-06-11T05:46:16.233Z,17.10
2023-06-11T05:46:47.168Z,17.10
2023-06-11T05:47:18.152Z,17.14
2023-06-11T05:47:49.139Z,17.14
2023-06-11T05:48:19.742Z,17.15
2023-06-11T05:48:50.205Z,17.17
2023-06-11T05:49:21.080Z,17.21
2023-06-11T05:49:51.941Z,17.21
2023-06-11T05:50:22.784Z,17.20
2023-06-11T05:50:53.640Z,17.21
2023-06-11T05:51:24.490Z,17.20
2023-06-11T05:51:55.322Z,17.22
2023-06-11T05:52:25.299Z,17.22
2023-06-11T05:52:57.979Z,17.22
2023-06-11T05:53:27.836Z,17.24
2023-06-11T05:53:58.801Z,17.22
2023-06-11T05:54:29.667Z,17.25
2023-06-11T05:55:00.534Z,17.25
2023-06-11T05:55:30.512Z,17.27
2023-06-11T05:56:01.503Z,17.27
2023-06-11T05:56:33.387Z,17.27
2023-06-11T05:57:04.247Z,17.28
2023-06-11T05:57:35.181Z,17.30
2023-06-11T05:58:06.032Z,17.28
2023-06-11T05:58:36.932Z,17.32
2023-06-11T05:59:07.765Z,17.32
2023-06-11T05:59:38.640Z,17.33
2023-06-11T06:00:09.500Z,17.32
2023-06-11T06:00:40.334Z,17.33
2023-06-11T06:01:11.231Z,17.35
2023-06-11T06:01:43.228Z,17.36
2023-06-11T06:02:12.004Z,17.38
2023-06-11T06:02:44.037Z,17.38
2023-06-11T06:03:14.528Z,17.38
2023-06-11T06:03:45.138Z,17.39
2023-06-11T06:04:15.765Z,17.40
2023-06-11T06:04:46.260Z,17.40
2023-06-11T06:05:17.105Z,17.40
2023-06-11T06:05:47.983Z,17.43
2023-06-11T06:06:18.818Z,17.43
2023-06-11T06:06:49.662Z,17.45
2023-06-11T06:07:20.512Z,17.45
2023-06-11T06:07:51.419Z,17.46
2023-06-11T06:08:22.253Z,17.47
2023-06-11T06:08:53.006Z,17.49
2023-06-11T06:09:23.895Z,17.51
2023-06-11T06:09:54.753Z,17.54
2023-06-11T06:10:25.622Z,17.53
2023-06-11T06:10:56.506Z,17.54
2023-06-11T06:11:27.344Z,17.55
2023-06-11T06:11:58.233Z,17.55
2023-06-11T06:12:29.116Z,17.55
2023-06-11T06:13:00.039Z,17.55
2023-06-11T06:13:30.904Z,17.58
2023-06-11T06:14:01.774Z,17.58
2023-06-11T06:14:32.691Z,17.60
2023-06-11T06:15:03.546Z,17.62
2023-06-11T06:15:34.441Z,17.62
2023-06-11T06:16:05.310Z,17.60
2023-06-11T06:16:35.369Z,17.63
2023-06-11T06:17:07.285Z,17.62
2023-06-11T06:17:38.255Z,17.63
2023-06-11T06:18:09.151Z,17.63
2023-06-11T06:18:39.996Z,17.66
2023-06-11T06:19:10.851Z,17.66
2023-06-11T06:19:41.697Z,17.70
2023-06-11T06:20:12.560Z,17.73
2023-06-11T06:20:43.405Z,17.71
2023-06-11T06:21:14.298Z,17.71
2023-06-11T06:21:45.170Z,17.74
2023-06-11T06:22:15.938Z,17.76
2023-06-11T06:22:46.788Z,17.77
2023-06-11T06:23:17.655Z,17.76
2023-06-11T06:23:48.543Z,17.77
2023-06-11T06:24:19.472Z,17.80
2023-06-11T06:24:49.934Z,17.80
2023-06-11T06:25:20.777Z,17.80
2023-06-11T06:25:51.655Z,17.80
2023-06-11T06:26:22.505Z,17.83
2023-06-11T06:26:53.399Z,17.84
2023-06-11T06:27:24.255Z,17.86
2023-06-11T06:27:55.056Z,17.87
2023-06-11T06:28:26.021Z,17.87
2023-06-11T06:28:56.867Z,17.91
2023-06-11T06:29:27.723Z,17.91
2023-06-11T06:29:58.588Z,17.94
2023-06-11T06:30:29.469Z,17.94
2023-06-11T06:31:00.241Z,17.96
2023-06-11T06:31:31.122Z,17.96
2023-06-11T06:32:02.091Z,17.98
2023-06-11T06:32:31.777Z,17.99
2023-06-11T06:33:03.764Z,17.99
2023-06-11T06:33:34.259Z,18.01
2023-06-11T06:34:05.151Z,18.02
2023-06-11T06:34:36.006Z,18.05
2023-06-11T06:35:05.980Z,18.10
2023-06-11T06:35:37.830Z,18.13
2023-06-11T06:36:08.686Z,18.16
2023-06-11T06:36:39.561Z,18.16
2023-06-11T06:37:10.430Z,18.19